Winchester, ID (83555)

4:39 PM PDT on April 28, 2017 (GMT -0700)
Boone St | | Change Station

Elev 3750 ft 46.24 °N, 116.48 °W | Updated 11 seconds ago

Overcast
Overcast
43.4 °F
Feels Like 40 °F
N
6.0
Wind Variable Wind from ESE

Today
High -- | Low -- °F
--% Chance of Precip.
Yesterday
High -- | Low -- °F
Precip. -- in
Pressure 30.22 in
Visibility 10.0 miles
Clouds Overcast 2800 ft
Windchill 40 °F
Dew Point 37 °F
Humidity 80%
Rainfall 0.02 in
Snow Depth Not available.
5:36 AM 7:51 PM
Waxing Crescent, 9% visible
METAR KGIC 282315Z AUTO 12010KT 080V140 10SM OVC028 06/01 A3022 RMK AO1
Pressure 30.22 in
Visibility 10.0 miles
Clouds Overcast 2800 ft
Windchill 40 °F
Dew Point 37 °F
Humidity 80%
Rainfall 0.02 in
Snow Depth Not available.
5:36 AM 7:51 PM
Waxing Crescent, 9% visible
METAR KGIC 282315Z AUTO 12010KT 080V140 10SM OVC028 06/01 A3022 RMK AO1

Get Severe Weather Alerts

Thanks for signing up!

Be on the lookout for a verification email in your inbox.

You'll start receiving the daily forecast at 8 AM.

×

10-Day Weather Forecast

Almanac

Astronomy

Apr. 28, 2017 Rise Set
Actual Time
Civil Twilight
Nautical Twilight
Astronomical Twilight
Moon
Length of Visible Light
Length of Day
Tomorrow will be .
, % of the Moon is Illuminated

Today's Extremes

State Highs State Lows

Community

WunderPhotos

WunderBlog® & News

Nearby

Air Quality

  Air Quality AQ Index Pollutant
Not available.

Snow Depth

Station Depth Elevation

Earthquake Activity

City Distance Mag. Time & Date
Minimum magnitude displayed is 2.5.

Coastal Water Temperatures

Place Temperature

Stations

Nearby Weather Stations

Station Location Temp. Windchill Dew Point Humidity Wind Precip. Elev Updated Type
                   

Watches & Warnings

There are currently no watches in effect.